Aérodrome :
LOGIN :

S'inscrire | Disclaimer

   EN    FR    IT 

 










Légende :    VFR   VFR Marginal   IFR   IFR Intensif   IFR Très Intensif
Visi : 
Plafond : 
>= 8 km
>= 3000ft
5 à 8 km
1000 à 3000 ft
1500m à 5 km
500 à 1000 ft
800 à 1500m
200 à 500 ft
< 800m
< 200 ft
Symboles :   Orages  Brouillard  Fortes neiges  Fortes précipitations  Vent > 20 kt
SIGMETs :   Divers  Orages  Givrage  Turbulence  Onde Orograph.  Cendres Volcan.






- Altitude de l'aérodrome : 299 ft
- Code IATA : EDM


LFRI - La Roche Sur Yon - Les Ajoncs

DERNIER METAR :
  • 140030Z AUTO 20004KT 9999 FEW044/// BKN110/// BKN150/// ///TCU 05/03 Q0995

METARs EXPIRÉS :
  • 140000Z AUTO 28007KT 220V310 9999 -RA SCT018/// SCT025/// BKN030/// ///TCU 06/05 Q0996
  • 132330Z AUTO 18005KT 140V210 9999 RA SCT031/// BKN049/// BKN062/// ///TCU 05/05 Q0996
  • 132300Z AUTO 18004KT 9999 FEW009/// BKN047/// BKN078/// ///TCU 05/05 Q0996
  • 132230Z AUTO VRB02KT 6000 -RA SCT011 BKN020 BKN025 05/05 Q0996
  • 132200Z AUTO 17002KT 9999 BKN015 BKN030 OVC036 05/05 Q0996

TAF TAF LFRI
Valide du 13 à 18h jusqu'au 14 à 18h UTC


131700Z 1318/1418 19012KT 9999 BKN030TCU
TEMPO 1319/1321 VRB20G35KT 3000 SHRAGS BKN008 BKN020CB
PROB30
TEMPO 1318/1321 3000 TSRAGS BKN020CB
BECMG 1321/1323 VRB05KT 9999 SCT030TCU
TEMPO 1321/1406 4000 SHRA BKN020TCU SCT030CB



MET'MAP, la Météo Aéronautique d'un coup d'oeil ! - Copyright ORBIFLY Décembre 2007 - Disclaimer

ORBIFLY MET'MAP TEAM :

Programmation & Développement : Alexandra Zaïnal
Conception & Développement : Baudouin d'Aumeries
Co-Programmation & Développement : Marc-Olivier Méhu
Soutien technique & logistique : Manuel Goepfert

Contact : metmap@orbifly.com




SOURCES & CREDITS :

   NOAA